Time;durP1;ratioP1;P1;durP2;ratioP2;P2;SDS_P1;SDS_P2;PMS_P1;PMS_P2;Temp;Humidity;BMP_temperature;BMP_pressure;BME280_temperature;BME280_humidity;BME280_pressure;Samples;Min_cycle;Max_cycle;Signal;HPM_P1;HPM_P2
2023/10/28 00:00:51;;;;;;;4.17;1.50;;;10.10;99.90;;;;;;5086123;28;20247;-78
2023/10/28 00:03:16;;;;;;;1.80;1.47;;;10.20;99.90;;;;;;5073274;28;20630;-80
2023/10/28 00:05:42;;;;;;;1.83;1.67;;;10.20;99.90;;;;;;5074067;28;20181;-78
2023/10/28 00:08:08;;;;;;;1.60;1.50;;;10.20;99.90;;;;;;5081161;28;20179;-78
2023/10/28 00:10:36;;;;;;;2.50;1.40;;;10.10;99.90;;;;;;5086546;28;20221;-78
2023/10/28 00:13:04;;;;;;;1.33;1.33;;;10.10;99.90;;;;;;5082182;28;20630;-78
2023/10/28 00:15:30;;;;;;;1.67;1.57;;;10.10;99.90;;;;;;5073840;28;20175;-79
2023/10/28 00:17:57;;;;;;;2.00;1.80;;;10.00;99.90;;;;;;5074122;28;20228;-78
2023/10/28 00:20:23;;;;;;;1.77;1.67;;;10.00;99.90;;;;;;5073432;28;20174;-78
2023/10/28 00:22:53;;;;;;;2.67;1.57;;;10.00;99.90;;;;;;5074127;28;20212;-78
2023/10/28 00:25:22;;;;;;;1.60;1.50;;;9.70;99.90;;;;;;5077005;28;20225;-76
2023/10/28 00:27:49;;;;;;;1.97;1.87;;;10.00;99.90;;;;;;5076414;28;20173;-77
2023/10/28 00:30:15;;;;;;;1.80;1.70;;;10.00;99.90;;;;;;5076661;28;20299;-77
2023/10/28 00:32:41;;;;;;;2.23;2.03;;;10.00;99.90;;;;;;5076056;28;20221;-77
2023/10/28 00:35:08;;;;;;;1.60;1.50;;;10.00;99.90;;;;;;5076698;28;20173;-78
2023/10/28 00:37:35;;;;;;;1.57;1.47;;;10.00;99.90;;;;;;5076813;28;20178;-77
2023/10/28 00:40:01;;;;;;;2.47;1.47;;;10.00;99.90;;;;;;5076948;28;20175;-78
2023/10/28 00:42:27;;;;;;;1.70;1.60;;;10.00;99.90;;;;;;5078037;28;20174;-77
2023/10/28 00:44:55;;;;;;;1.73;1.40;;;10.00;99.90;;;;;;5078719;28;20209;-79
2023/10/28 00:47:26;;;;;;;1.50;1.40;;;10.00;99.90;;;;;;5076805;28;20183;-79
2023/10/28 00:49:52;;;;;;;1.57;1.47;;;9.90;99.90;;;;;;5077467;28;20227;-79
2023/10/28 00:52:19;;;;;;;3.83;1.80;;;10.00;99.90;;;;;;5076426;28;20550;-78
2023/10/28 00:54:47;;;;;;;1.50;1.40;;;10.00;99.90;;;;;;5077676;28;20179;-78
2023/10/28 00:57:16;;;;;;;1.80;1.70;;;9.90;99.90;;;;;;5077152;28;20224;-79
2023/10/28 00:59:42;;;;;;;1.40;1.40;;;9.80;99.90;;;;;;5075518;28;20181;-77
2023/10/28 01:02:10;;;;;;;1.77;1.67;;;9.80;99.90;;;;;;5076276;28;20168;-77
2023/10/28 01:04:36;;;;;;;1.40;1.30;;;9.90;99.90;;;;;;5075659;28;20204;-76
2023/10/28 01:07:02;;;;;;;2.37;1.53;;;9.90;99.90;;;;;;5074608;28;20183;-78
2023/10/28 01:09:28;;;;;;;1.67;1.57;;;10.00;99.90;;;;;;5077062;28;20167;-77
2023/10/28 01:11:55;;;;;;;2.63;1.60;;;10.00;99.90;;;;;;5077842;28;20519;-78
2023/10/28 01:14:21;;;;;;;1.60;1.50;;;10.00;99.90;;;;;;5081969;28;20150;-79
2023/10/28 01:16:49;;;;;;;1.30;1.30;;;9.90;99.90;;;;;;5086548;28;20217;-77
2023/10/28 01:19:15;;;;;;;1.30;1.30;;;10.00;99.90;;;;;;5076115;28;20172;-77
2023/10/28 01:21:42;;;;;;;1.30;1.30;;;10.00;99.90;;;;;;5083979;28;20196;-77
2023/10/28 01:24:08;;;;;;;2.40;1.33;;;10.00;99.90;;;;;;5074476;28;20186;-77
2023/10/28 01:26:36;;;;;;;1.60;1.50;;;9.90;99.90;;;;;;5075820;28;20226;-77
2023/10/28 01:29:03;;;;;;;1.33;1.20;;;9.90;99.90;;;;;;5074507;28;20180;-78
2023/10/28 01:31:28;;;;;;;1.03;1.03;;;9.90;99.90;;;;;;5080163;28;20229;-78
2023/10/28 01:33:54;;;;;;;1.07;1.07;;;9.90;99.90;;;;;;5076897;28;20184;-78
2023/10/28 01:36:20;;;;;;;2.00;1.20;;;9.90;99.90;;;;;;5075794;28;20184;-78
2023/10/28 01:38:47;;;;;;;4.10;1.43;;;9.90;99.90;;;;;;5075872;28;20174;-78
2023/10/28 01:41:13;;;;;;;0.90;0.90;;;9.90;99.90;;;;;;5074309;28;20280;-79
2023/10/28 01:43:45;;;;;;;1.30;1.20;;;9.80;99.90;;;;;;5075577;28;20206;-77
2023/10/28 01:46:13;;;;;;;1.17;1.17;;;9.80;99.90;;;;;;5077772;28;20202;-77
2023/10/28 01:48:39;;;;;;;2.23;1.20;;;9.70;99.90;;;;;;5076439;28;20544;-78
2023/10/28 01:51:05;;;;;;;1.80;1.30;;;9.70;99.90;;;;;;5077131;28;20200;-79
2023/10/28 01:53:30;;;;;;;1.43;1.40;;;9.70;99.90;;;;;;5082271;28;20651;-78
2023/10/28 01:55:58;;;;;;;1.10;1.10;;;9.60;99.90;;;;;;5087467;28;20170;-78
2023/10/28 01:58:24;;;;;;;1.10;1.10;;;9.60;99.90;;;;;;5077280;28;20291;-79
2023/10/28 02:00:50;;;;;;;1.47;1.10;;;9.60;99.90;;;;;;5086880;28;20191;-79
2023/10/28 02:03:15;;;;;;;1.13;1.13;;;9.60;99.90;;;;;;5089417;28;20174;-78
2023/10/28 02:05:42;;;;;;;1.13;1.10;;;9.70;99.90;;;;;;5074986;28;20178;-79
2023/10/28 02:08:07;;;;;;;1.53;1.43;;;9.70;99.90;;;;;;5077760;28;20190;-77
2023/10/28 02:10:34;;;;;;;0.83;0.83;;;9.80;99.90;;;;;;5074480;28;20209;-78
2023/10/28 02:13:00;;;;;;;1.10;1.00;;;9.70;99.90;;;;;;5074126;28;20177;-78
2023/10/28 02:15:25;;;;;;;1.27;1.20;;;9.80;99.90;;;;;;5074109;28;20177;-78
2023/10/28 02:17:52;;;;;;;1.20;1.10;;;9.80;99.90;;;;;;5073960;28;20596;-79
2023/10/28 02:20:18;;;;;;;1.20;1.20;;;9.90;99.90;;;;;;5074069;28;20202;-78
2023/10/28 02:22:44;;;;;;;1.10;1.10;;;9.90;99.90;;;;;;5073696;28;20210;-78
2023/10/28 02:25:10;;;;;;;1.23;1.23;;;9.90;99.90;;;;;;5072428;28;20198;-79
2023/10/28 02:27:37;;;;;;;1.13;1.13;;;9.80;99.90;;;;;;5071755;28;20204;-79
2023/10/28 02:30:09;;;;;;;1.10;1.10;;;9.80;99.90;;;;;;5073749;28;20269;-78
2023/10/28 02:32:36;;;;;;;0.90;0.90;;;9.90;99.90;;;;;;5074702;28;20211;-79
2023/10/28 02:35:03;;;;;;;1.07;1.07;;;9.90;99.90;;;;;;5079987;28;20217;-79
2023/10/28 02:37:29;;;;;;;2.10;1.30;;;10.00;99.90;;;;;;5077528;28;20189;-78
2023/10/28 02:39:56;;;;;;;1.27;1.20;;;10.00;99.90;;;;;;5075380;28;20183;-77
2023/10/28 02:42:24;;;;;;;3.30;1.20;;;10.00;99.90;;;;;;5073436;28;20171;-77
2023/10/28 02:44:51;;;;;;;0.90;0.90;;;10.00;99.90;;;;;;5073928;28;20283;-78
2023/10/28 02:47:17;;;;;;;1.03;1.03;;;9.90;99.90;;;;;;5072893;28;20163;-79
2023/10/28 02:49:43;;;;;;;2.10;1.10;;;9.90;99.90;;;;;;5073402;28;20190;-78
2023/10/28 02:52:09;;;;;;;1.60;1.50;;;10.00;99.90;;;;;;5073385;28;20177;-78
2023/10/28 02:54:35;;;;;;;1.10;1.10;;;9.90;99.90;;;;;;5073417;28;20188;-79
2023/10/28 02:57:01;;;;;;;1.00;1.00;;;9.90;99.90;;;;;;5072903;28;20318;-79
2023/10/28 02:59:27;;;;;;;1.10;1.10;;;10.00;99.90;;;;;;5072868;28;20633;-79
2023/10/28 03:01:53;;;;;;;1.03;1.03;;;10.00;99.90;;;;;;5073426;28;20204;-79
2023/10/28 03:04:19;;;;;;;1.10;1.10;;;10.00;99.90;;;;;;5078133;28;20268;-78
2023/10/28 03:06:45;;;;;;;1.27;1.00;;;10.10;99.90;;;;;;5072581;28;20204;-79
2023/10/28 03:09:12;;;;;;;2.50;1.10;;;10.00;99.90;;;;;;5073098;28;20181;-79
2023/10/28 03:11:37;;;;;;;2.57;1.10;;;10.10;99.90;;;;;;5080372;28;20234;-78
2023/10/28 03:14:06;;;;;;;1.53;1.43;;;10.10;99.90;;;;;;5073924;28;20213;-77
2023/10/28 03:16:32;;;;;;;1.30;1.27;;;10.00;99.90;;;;;;5074243;28;20538;-80
2023/10/28 03:18:58;;;;;;;1.10;1.10;;;9.90;99.90;;;;;;5073788;28;20164;-79
2023/10/28 03:21:24;;;;;;;1.20;1.20;;;10.00;99.90;;;;;;5074165;28;20176;-80
2023/10/28 03:23:50;;;;;;;1.40;1.30;;;9.80;99.90;;;;;;5072802;28;20629;-77
2023/10/28 03:26:16;;;;;;;1.60;1.50;;;9.70;99.90;;;;;;5072962;28;20224;-77
2023/10/28 03:28:42;;;;;;;1.60;1.50;;;9.70;99.90;;;;;;5074703;28;20185;-77
2023/10/28 03:31:12;;;;;;;1.73;1.63;;;9.50;99.90;;;;;;5072757;28;20212;-77
2023/10/28 03:33:38;;;;;;;2.43;1.60;;;9.40;99.90;;;;;;5071686;28;20605;-78
2023/10/28 03:36:10;;;;;;;2.23;1.90;;;9.40;99.90;;;;;;5078113;28;20175;-81
2023/10/28 03:38:36;;;;;;;4.73;1.80;;;9.40;99.90;;;;;;5086959;28;20164;-78
2023/10/28 03:41:06;;;;;;;1.97;1.87;;;9.40;99.90;;;;;;5075903;28;20977;-78
2023/10/28 03:43:32;;;;;;;3.30;1.90;;;9.40;99.90;;;;;;5086407;28;20180;-79
2023/10/28 03:45:58;;;;;;;1.90;1.80;;;9.40;99.90;;;;;;5087383;28;20703;-78
2023/10/28 03:48:24;;;;;;;2.53;1.93;;;9.40;99.90;;;;;;5081950;28;20667;-78
2023/10/28 03:51:16;;;;;;;1.90;1.80;;;9.40;99.90;;;;;;5074528;28;20295;-79
2023/10/28 03:53:42;;;;;;;2.13;2.03;;;9.30;99.90;;;;;;5085433;28;20193;-79
2023/10/28 03:56:08;;;;;;;2.73;2.00;;;9.30;99.90;;;;;;5076189;28;20750;-78
2023/10/28 03:58:34;;;;;;;1.90;1.80;;;9.30;99.90;;;;;;5074615;28;20960;-79
2023/10/28 04:01:00;;;;;;;2.00;1.90;;;9.30;99.90;;;;;;5093219;28;20156;-78
2023/10/28 04:03:26;;;;;;;2.30;2.20;;;9.30;99.90;;;;;;5081318;28;20215;-79
2023/10/28 04:05:53;;;;;;;2.20;2.10;;;9.30;99.90;;;;;;5076506;28;20723;-78
2023/10/28 04:08:19;;;;;;;1.87;1.77;;;9.30;99.90;;;;;;5076417;28;20225;-78
2023/10/28 04:10:46;;;;;;;2.20;2.10;;;9.30;99.90;;;;;;5076888;28;20211;-79
2023/10/28 04:13:14;;;;;;;2.07;1.87;;;9.20;99.90;;;;;;5076923;28;20635;-77
2023/10/28 04:15:40;;;;;;;2.40;2.20;;;9.20;99.90;;;;;;5075948;28;20185;-79
2023/10/28 04:18:06;;;;;;;2.77;1.97;;;9.20;99.90;;;;;;5076910;28;20507;-80
2023/10/28 04:20:33;;;;;;;2.43;2.10;;;9.20;99.90;;;;;;5076504;28;20227;-78
2023/10/28 04:22:59;;;;;;;2.60;1.90;;;9.20;99.90;;;;;;5076957;28;20167;-77
2023/10/28 04:25:24;;;;;;;2.47;2.27;;;9.20;99.90;;;;;;5077254;28;20219;-77
2023/10/28 04:27:50;;;;;;;2.40;2.20;;;9.20;99.90;;;;;;5077898;28;20183;-79
2023/10/28 04:30:16;;;;;;;2.10;2.00;;;9.30;99.90;;;;;;5076862;28;20579;-78
2023/10/28 04:32:43;;;;;;;2.10;1.97;;;9.30;99.90;;;;;;5077207;28;20204;-78
2023/10/28 04:35:12;;;;;;;3.20;2.00;;;9.30;99.90;;;;;;5076801;28;20183;-78
2023/10/28 04:37:37;;;;;;;2.07;1.87;;;9.40;99.90;;;;;;5075626;28;20210;-78
2023/10/28 04:40:05;;;;;;;2.30;2.10;;;9.50;99.90;;;;;;5076625;28;20182;-78
2023/10/28 04:42:31;;;;;;;2.50;2.27;;;9.50;99.90;;;;;;5075658;28;20230;-78
2023/10/28 04:44:57;;;;;;;1.97;1.87;;;9.50;99.90;;;;;;5076798;28;20534;-78
2023/10/28 04:47:24;;;;;;;2.10;1.90;;;9.50;99.90;;;;;;5076611;28;20177;-78
2023/10/28 04:49:50;;;;;;;2.20;1.90;;;9.50;99.90;;;;;;5076469;28;20169;-79
2023/10/28 04:52:16;;;;;;;1.50;1.40;;;9.60;99.90;;;;;;5074698;28;20215;-78
2023/10/28 04:54:41;;;;;;;1.60;1.50;;;9.60;99.90;;;;;;5075946;28;20627;-77
2023/10/28 04:57:09;;;;;;;1.70;1.60;;;9.50;99.90;;;;;;5076303;28;20183;-77
2023/10/28 04:59:34;;;;;;;1.70;1.60;;;9.50;99.90;;;;;;5076249;28;20233;-77
2023/10/28 05:02:00;;;;;;;3.37;1.30;;;9.50;99.90;;;;;;5075524;28;20275;-77
2023/10/28 05:04:27;;;;;;;1.60;1.50;;;9.40;99.90;;;;;;5076007;28;20184;-78
2023/10/28 05:06:53;;;;;;;1.50;1.40;;;9.40;99.90;;;;;;5076945;28;20183;-79
2023/10/28 05:09:22;;;;;;;2.27;1.33;;;9.30;99.90;;;;;;5080354;28;20153;-78
2023/10/28 05:11:54;;;;;;;2.30;1.50;;;9.30;99.90;;;;;;5079936;28;20203;-79
2023/10/28 05:14:20;;;;;;;1.20;1.20;;;9.30;99.90;;;;;;5085591;28;20612;-77
2023/10/28 05:16:46;;;;;;;1.47;1.37;;;9.30;99.90;;;;;;5075504;28;20640;-78
2023/10/28 05:19:12;;;;;;;1.77;1.67;;;9.40;99.90;;;;;;5075339;28;20234;-78
2023/10/28 05:21:38;;;;;;;2.40;1.70;;;9.40;99.90;;;;;;5078959;28;20175;-78
2023/10/28 05:24:04;;;;;;;1.97;1.50;;;9.40;99.90;;;;;;5089422;28;20185;-78
2023/10/28 05:26:30;;;;;;;3.17;1.40;;;9.40;99.90;;;;;;5079016;28;20225;-77
2023/10/28 05:28:57;;;;;;;1.40;1.40;;;9.40;99.90;;;;;;5091083;28;20157;-78
2023/10/28 05:31:25;;;;;;;3.30;1.30;;;9.40;99.90;;;;;;5098217;28;20220;-77
2023/10/28 05:33:51;;;;;;;1.50;1.40;;;9.50;99.90;;;;;;5084072;28;20201;-77
2023/10/28 05:36:17;;;;;;;1.67;1.40;;;9.60;99.90;;;;;;5076142;28;20182;-77
2023/10/28 05:38:43;;;;;;;1.30;1.30;;;9.60;99.90;;;;;;5069647;28;20190;-79
2023/10/28 05:41:10;;;;;;;3.23;1.30;;;9.70;99.90;;;;;;5092825;28;20184;-79
2023/10/28 05:43:37;;;;;;;1.87;1.60;;;9.70;99.90;;;;;;5086967;28;20690;-78
2023/10/28 05:46:03;;;;;;;1.33;1.30;;;9.70;99.90;;;;;;5077401;28;20645;-78
2023/10/28 05:48:29;;;;;;;1.73;1.63;;;9.70;99.90;;;;;;5075949;28;20209;-80
2023/10/28 05:50:58;;;;;;;5.47;2.83;;;9.80;99.90;;;;;;5075080;28;20530;-80
2023/10/28 05:53:23;;;;;;;7.10;1.93;;;9.80;99.90;;;;;;5076304;28;20177;-78
2023/10/28 05:55:50;;;;;;;1.57;1.57;;;9.80;99.90;;;;;;5076723;28;20220;-79
2023/10/28 05:58:16;;;;;;;1.60;1.50;;;9.70;99.90;;;;;;5075949;28;20206;-80
2023/10/28 06:00:42;;;;;;;1.70;1.60;;;9.70;99.90;;;;;;5074425;28;20211;-81
2023/10/28 06:03:08;;;;;;;2.60;1.40;;;9.70;99.90;;;;;;5078347;28;20178;-79
2023/10/28 06:05:37;;;;;;;1.70;1.60;;;9.60;99.90;;;;;;5074773;28;20182;-79
2023/10/28 06:08:03;;;;;;;2.07;1.97;;;9.60;99.90;;;;;;5079238;28;20185;-78
2023/10/28 06:10:29;;;;;;;2.60;2.00;;;9.60;99.90;;;;;;5081158;28;20278;-79
2023/10/28 06:12:55;;;;;;;2.27;2.07;;;9.70;99.90;;;;;;5074714;28;20319;-78
2023/10/28 06:15:24;;;;;;;2.20;2.10;;;9.70;99.90;;;;;;5074476;28;20176;-78
2023/10/28 06:17:50;;;;;;;2.00;1.90;;;9.70;99.90;;;;;;5079304;28;20194;-79
2023/10/28 06:20:16;;;;;;;3.93;2.20;;;9.70;99.90;;;;;;5075873;28;20695;-80
2023/10/28 06:22:42;;;;;;;2.70;2.50;;;9.70;99.90;;;;;;5073081;28;20194;-78
2023/10/28 06:25:08;;;;;;;2.10;2.00;;;9.70;99.90;;;;;;5074356;28;20170;-77
2023/10/28 06:27:34;;;;;;;6.20;2.10;;;9.70;99.90;;;;;;5073044;28;20189;-79
2023/10/28 06:30:00;;;;;;;2.57;2.33;;;9.70;99.90;;;;;;5076478;28;20236;-79
2023/10/28 06:32:29;;;;;;;4.10;2.40;;;9.80;99.90;;;;;;5075795;28;20579;-77
2023/10/28 06:34:55;;;;;;;2.77;2.57;;;9.70;99.90;;;;;;5080159;28;20174;-79
2023/10/28 06:37:21;;;;;;;3.20;2.07;;;9.70;99.90;;;;;;5073888;28;20182;-78
2023/10/28 06:39:47;;;;;;;4.57;2.40;;;9.70;99.90;;;;;;5074665;28;20175;-79
2023/10/28 06:42:14;;;;;;;3.07;2.57;;;9.80;99.90;;;;;;5075021;28;20175;-79
2023/10/28 06:44:40;;;;;;;2.53;2.43;;;9.90;99.90;;;;;;5077502;28;20178;-78
2023/10/28 06:47:07;;;;;;;2.83;2.63;;;10.00;99.90;;;;;;5073446;28;20178;-79
2023/10/28 06:49:32;;;;;;;2.93;2.67;;;10.20;99.90;;;;;;5073039;28;20170;-77
2023/10/28 06:51:58;;;;;;;2.30;2.20;;;10.30;99.90;;;;;;5073241;28;20722;-78
2023/10/28 06:54:24;;;;;;;3.60;3.03;;;10.30;99.90;;;;;;5073302;28;20259;-80
2023/10/28 06:56:51;;;;;;;2.10;2.00;;;10.40;99.90;;;;;;5073010;28;20186;-79
2023/10/28 06:59:20;;;;;;;2.50;2.30;;;10.40;99.90;;;;;;5072144;28;20181;-77
2023/10/28 07:01:46;;;;;;;1.97;1.87;;;10.50;99.90;;;;;;5072279;28;20548;-78
2023/10/28 07:04:11;;;;;;;2.67;1.90;;;10.50;99.90;;;;;;5073127;28;20254;-78
2023/10/28 07:06:39;;;;;;;1.47;1.47;;;10.60;99.90;;;;;;5073369;28;20183;-77
2023/10/28 07:09:05;;;;;;;2.13;2.03;;;10.70;99.90;;;;;;5072254;28;20181;-78
2023/10/28 07:11:30;;;;;;;3.83;2.30;;;10.70;99.90;;;;;;5073211;28;20275;-78
2023/10/28 07:13:56;;;;;;;3.00;2.17;;;10.70;99.90;;;;;;5073209;28;20171;-79
2023/10/28 07:16:22;;;;;;;2.27;2.17;;;10.70;99.90;;;;;;5072527;28;20643;-78
2023/10/28 07:18:48;;;;;;;2.10;2.00;;;10.70;99.90;;;;;;5073143;28;20174;-79
2023/10/28 07:21:14;;;;;;;1.67;1.57;;;10.60;99.90;;;;;;5073658;28;20242;-79
2023/10/28 07:23:40;;;;;;;1.80;1.70;;;10.70;99.90;;;;;;5080095;28;20258;-79
2023/10/28 07:26:06;;;;;;;2.57;1.90;;;10.70;99.90;;;;;;5088151;28;20245;-78
2023/10/28 07:28:34;;;;;;;1.70;1.60;;;10.60;99.90;;;;;;5087463;28;20175;-79
2023/10/28 07:31:01;;;;;;;2.70;1.53;;;10.60;99.90;;;;;;5077219;28;20219;-78
2023/10/28 07:33:27;;;;;;;2.93;1.67;;;10.70;99.90;;;;;;5079577;28;20227;-78
2023/10/28 07:35:53;;;;;;;1.60;1.50;;;10.70;99.90;;;;;;5097052;28;20170;-78
2023/10/28 07:38:20;;;;;;;1.60;1.60;;;10.70;99.90;;;;;;5082822;28;20644;-78
2023/10/28 07:40:47;;;;;;;1.40;1.30;;;10.60;99.90;;;;;;5082149;28;20182;-77
2023/10/28 07:43:14;;;;;;;2.13;1.50;;;10.70;99.90;;;;;;5080308;28;20295;-79
2023/10/28 07:45:41;;;;;;;1.47;1.47;;;10.80;99.90;;;;;;5079886;28;20170;-78
2023/10/28 07:48:08;;;;;;;1.83;1.73;;;11.00;99.90;;;;;;5079273;28;20538;-79
2023/10/28 07:50:35;;;;;;;2.17;1.90;;;11.10;99.90;;;;;;5084952;28;20783;-79
2023/10/28 07:53:01;;;;;;;1.90;1.80;;;11.10;99.90;;;;;;5097061;28;20180;-78
2023/10/28 07:55:27;;;;;;;1.80;1.70;;;11.30;99.90;;;;;;5078991;28;20628;-76
2023/10/28 07:57:54;;;;;;;2.10;1.73;;;11.40;99.90;;;;;;5078185;28;20209;-76
2023/10/28 08:00:20;;;;;;;2.10;2.00;;;11.50;99.90;;;;;;5080296;28;20615;-77
2023/10/28 08:02:46;;;;;;;1.60;1.50;;;11.40;99.90;;;;;;5080016;28;20173;-77
2023/10/28 08:05:12;;;;;;;1.93;1.83;;;11.50;99.90;;;;;;5080950;28;20644;-77
2023/10/28 08:07:38;;;;;;;1.40;1.37;;;11.80;99.90;;;;;;5079942;28;20175;-77
2023/10/28 08:10:05;;;;;;;1.30;1.20;;;11.90;99.90;;;;;;5079411;28;20201;-77
2023/10/28 08:12:31;;;;;;;1.50;1.50;;;12.00;99.90;;;;;;5078810;28;20229;-76
2023/10/28 08:15:03;;;;;;;1.30;1.10;;;12.00;99.90;;;;;;5080158;28;20188;-77
2023/10/28 08:17:31;;;;;;;1.20;1.20;;;12.00;99.90;;;;;;5083948;28;20176;-77
2023/10/28 08:19:56;;;;;;;1.17;1.07;;;12.00;99.90;;;;;;5079761;28;20169;-77
2023/10/28 08:22:24;;;;;;;1.00;1.00;;;12.00;99.90;;;;;;5080133;28;20257;-77
2023/10/28 08:24:50;;;;;;;2.50;1.20;;;12.00;99.90;;;;;;5079984;28;20173;-77
2023/10/28 08:27:16;;;;;;;2.97;1.80;;;12.00;99.90;;;;;;5080015;28;20222;-78
2023/10/28 08:29:43;;;;;;;0.87;0.87;;;12.10;99.90;;;;;;5080538;28;20179;-78
2023/10/28 08:32:10;;;;;;;1.30;1.20;;;12.20;99.90;;;;;;5080223;28;20654;-78
2023/10/28 08:34:35;;;;;;;0.80;0.80;;;12.20;99.90;;;;;;5080371;28;20173;-78
2023/10/28 08:37:03;;;;;;;0.80;0.80;;;12.30;99.90;;;;;;5080285;28;20178;-79
2023/10/28 08:39:28;;;;;;;1.90;1.80;;;12.40;99.90;;;;;;5079478;28;20167;-77
2023/10/28 08:41:54;;;;;;;0.90;0.90;;;12.40;99.90;;;;;;5078097;28;20195;-79
2023/10/28 08:44:27;;;;;;;0.93;0.93;;;12.30;99.90;;;;;;5077876;28;20169;-77
2023/10/28 08:46:53;;;;;;;1.00;1.00;;;12.10;99.90;;;;;;5076389;28;20525;-79
2023/10/28 08:49:21;;;;;;;2.13;1.00;;;12.20;99.90;;;;;;5077021;28;20175;-77
2023/10/28 08:51:58;;;;;;;1.40;1.03;;;12.00;99.90;;;;;;5075754;28;20686;-78
2023/10/28 08:54:26;;;;;;;0.80;0.80;;;11.90;99.90;;;;;;5077224;28;20261;-78
2023/10/28 08:56:56;;;;;;;1.40;0.60;;;11.80;99.90;;;;;;5077402;28;20171;-78
2023/10/28 08:59:21;;;;;;;1.10;1.10;;;11.70;99.90;;;;;;5076294;28;20205;-76
2023/10/28 09:01:48;;;;;;;0.73;0.73;;;11.60;99.90;;;;;;5078786;28;20202;-83
2023/10/28 09:04:21;;;;;;;0.70;0.70;;;11.40;99.90;;;;;;5088321;28;20231;-80
2023/10/28 09:06:47;;;;;;;0.90;0.90;;;11.60;99.90;;;;;;5087227;28;20171;-80
2023/10/28 09:09:16;;;;;;;1.03;0.90;;;11.20;99.90;;;;;;5092793;28;20176;-79
2023/10/28 09:11:42;;;;;;;0.90;0.90;;;11.10;99.90;;;;;;5093146;28;20206;-79
2023/10/28 09:14:08;;;;;;;0.70;0.70;;;11.10;99.90;;;;;;5077217;28;20177;-81
2023/10/28 09:16:35;;;;;;;1.73;1.63;;;11.00;99.90;;;;;;5078030;28;20182;-77
2023/10/28 09:19:03;;;;;;;0.63;0.63;;;10.90;99.90;;;;;;5081462;28;20209;-80
2023/10/28 09:21:29;;;;;;;0.87;0.87;;;10.80;99.90;;;;;;5075569;28;20214;-78
2023/10/28 09:24:00;;;;;;;0.70;0.70;;;10.90;99.90;;;;;;5075229;28;20292;-79
2023/10/28 09:26:27;;;;;;;1.60;0.70;;;10.80;99.90;;;;;;5075720;28;20274;-80
2023/10/28 09:28:52;;;;;;;1.63;0.83;;;10.80;99.90;;;;;;5075281;28;20186;-79
2023/10/28 09:31:25;;;;;;;0.87;0.83;;;10.70;99.90;;;;;;5080281;28;20216;-80
2023/10/28 09:33:52;;;;;;;0.90;0.90;;;10.70;99.90;;;;;;5077669;28;20181;-80
2023/10/28 09:36:18;;;;;;;1.00;1.00;;;10.60;99.90;;;;;;5076567;28;20175;-79
2023/10/28 09:38:47;;;;;;;0.90;0.90;;;10.50;99.90;;;;;;5075979;28;20171;-80
2023/10/28 09:41:13;;;;;;;0.97;0.97;;;10.40;99.90;;;;;;5075080;28;20179;-79
2023/10/28 09:43:39;;;;;;;0.83;0.83;;;10.40;99.90;;;;;;5075738;28;20170;-79
2023/10/28 09:46:06;;;;;;;1.10;0.97;;;10.50;99.90;;;;;;5073676;28;20657;-79
2023/10/28 09:48:37;;;;;;;1.03;1.00;;;10.60;99.90;;;;;;5086728;28;20177;-80
2023/10/28 09:51:05;;;;;;;0.90;0.90;;;10.70;99.90;;;;;;5079591;28;20684;-78
2023/10/28 09:53:35;;;;;;;1.40;1.00;;;10.80;99.90;;;;;;5075287;28;20162;-79
2023/10/28 09:56:02;;;;;;;0.97;0.97;;;10.90;99.90;;;;;;5074344;28;20205;-81
2023/10/28 09:58:38;;;;;;;2.20;1.13;;;11.00;99.90;;;;;;5076253;28;20577;-80
2023/10/28 10:01:29;;;;;;;0.90;0.90;;;11.20;99.90;;;;;;5082934;28;20185;-79
2023/10/28 10:04:20;;;;;;;1.00;0.80;;;11.40;99.90;;;;;;5056855;28;20215;-81
2023/10/28 10:06:47;;;;;;;0.80;0.80;;;11.40;99.90;;;;;;5083539;28;20174;-79
2023/10/28 10:09:18;;;;;;;0.70;0.70;;;11.40;99.90;;;;;;5080117;28;20190;-79
2023/10/28 10:11:44;;;;;;;2.10;1.10;;;11.40;99.90;;;;;;5080654;28;20195;-78
2023/10/28 10:14:11;;;;;;;1.53;0.80;;;11.50;99.90;;;;;;5077781;28;20181;-80
2023/10/28 10:17:21;;;;;;;0.90;0.90;;;11.60;99.90;;;;;;5081094;28;20516;-79
2023/10/28 10:19:48;;;;;;;2.00;1.10;;;11.60;99.90;;;;;;5085896;28;20159;-80
2023/10/28 10:22:18;;;;;;;0.97;0.97;;;11.80;99.90;;;;;;5084291;28;20210;-79
2023/10/28 10:24:50;;;;;;;1.10;1.10;;;11.90;99.90;;;;;;5088474;28;20174;-78
2023/10/28 10:27:36;;;;;;;1.03;1.00;;;12.00;99.90;;;;;;5079977;28;20578;-79
2023/10/28 10:30:06;;;;;;;0.80;0.80;;;12.20;99.90;;;;;;5088030;28;20625;-78
2023/10/28 10:32:47;;;;;;;1.23;1.13;;;12.30;99.90;;;;;;5078184;28;20693;-78
2023/10/28 10:35:26;;;;;;;0.90;0.90;;;12.40;99.90;;;;;;5078378;28;20556;-77
2023/10/28 10:38:00;;;;;;;2.40;0.87;;;12.70;99.90;;;;;;5075802;28;20160;-78
2023/10/28 10:40:28;;;;;;;0.80;0.80;;;12.50;99.90;;;;;;5083425;28;20155;-78
2023/10/28 10:42:56;;;;;;;0.90;0.90;;;12.60;99.90;;;;;;5067164;28;20194;-80
2023/10/28 10:45:22;;;;;;;0.63;0.63;;;13.20;99.90;;;;;;5082758;28;20170;-79
2023/10/28 10:47:49;;;;;;;1.23;0.93;;;12.60;99.90;;;;;;5087671;28;20198;-79
2023/10/28 10:50:15;;;;;;;0.50;0.50;;;12.50;99.90;;;;;;5073657;28;20191;-79
2023/10/28 10:52:42;;;;;;;0.70;0.70;;;12.60;99.90;;;;;;5074834;28;20183;-79
2023/10/28 10:55:08;;;;;;;0.90;0.90;;;12.70;99.90;;;;;;5074979;28;20168;-79
2023/10/28 10:57:36;;;;;;;0.80;0.80;;;13.00;99.90;;;;;;5074790;28;20183;-77
2023/10/28 11:00:11;;;;;;;1.00;1.00;;;13.00;99.90;;;;;;5074969;28;20182;-80
2023/10/28 11:02:38;;;;;;;0.83;0.83;;;13.10;99.90;;;;;;5079725;28;20198;-79
2023/10/28 11:05:04;;;;;;;1.43;1.00;;;13.20;99.90;;;;;;5085416;28;20183;-79
2023/10/28 11:07:31;;;;;;;1.27;0.87;;;13.00;99.90;;;;;;5086891;28;20171;-79
2023/10/28 11:09:57;;;;;;;1.30;1.20;;;13.00;99.90;;;;;;5080946;28;20689;-80
2023/10/28 11:12:23;;;;;;;1.10;1.10;;;13.10;99.90;;;;;;5073179;28;20282;-79
2023/10/28 11:14:52;;;;;;;1.20;1.20;;;13.10;99.90;;;;;;5074074;28;20202;-80
2023/10/28 11:17:18;;;;;;;0.97;0.97;;;13.10;99.90;;;;;;5072429;28;20258;-80
2023/10/28 11:19:50;;;;;;;1.20;1.20;;;13.10;99.90;;;;;;5072135;28;20286;-80
2023/10/28 11:22:17;;;;;;;1.40;1.10;;;13.10;99.90;;;;;;5076317;28;20186;-81
2023/10/28 11:24:43;;;;;;;0.73;0.73;;;13.10;99.90;;;;;;5091993;28;20171;-81
2023/10/28 11:27:17;;;;;;;0.90;0.90;;;13.10;99.90;;;;;;5086431;28;20219;-81
2023/10/28 11:29:43;;;;;;;0.73;0.73;;;13.10;99.90;;;;;;5075413;28;20168;-79
2023/10/28 11:32:09;;;;;;;0.90;0.90;;;13.10;99.90;;;;;;5073707;28;20214;-80
2023/10/28 11:34:39;;;;;;;0.87;0.87;;;13.10;99.90;;;;;;5074060;28;20254;-78
2023/10/28 11:37:10;;;;;;;1.47;1.43;;;13.10;99.90;;;;;;5072509;28;20183;-81
2023/10/28 11:39:40;;;;;;;0.80;0.80;;;13.20;99.90;;;;;;5073418;28;20167;-80
2023/10/28 11:42:12;;;;;;;1.10;1.10;;;13.20;99.90;;;;;;5080724;28;20176;-80
2023/10/28 11:44:41;;;;;;;0.63;0.63;;;13.20;99.90;;;;;;5086331;28;20175;-80
2023/10/28 11:47:09;;;;;;;1.20;1.13;;;13.20;99.90;;;;;;5084667;28;20179;-79
2023/10/28 11:49:34;;;;;;;0.60;0.60;;;13.20;99.90;;;;;;5078691;28;20195;-79
2023/10/28 11:52:01;;;;;;;0.80;0.80;;;13.20;99.90;;;;;;5073817;28;20682;-83
2023/10/28 11:54:27;;;;;;;0.70;0.70;;;13.30;99.90;;;;;;5073606;28;20171;-79
2023/10/28 11:56:52;;;;;;;0.50;0.50;;;13.30;99.90;;;;;;5073181;28;20655;-80
2023/10/28 11:59:18;;;;;;;1.73;1.60;;;13.30;99.90;;;;;;5073219;28;20168;-80
2023/10/28 12:01:44;;;;;;;3.03;2.43;;;13.30;99.90;;;;;;5073051;28;20206;-79
2023/10/28 12:04:10;;;;;;;1.70;1.60;;;13.30;99.90;;;;;;5072919;28;20530;-80
2023/10/28 12:06:36;;;;;;;2.50;2.30;;;13.40;99.90;;;;;;5074027;28;20167;-80
2023/10/28 12:09:07;;;;;;;7.70;6.77;;;13.40;99.90;;;;;;5074223;28;20201;-79
2023/10/28 12:11:34;;;;;;;5.30;4.80;;;13.40;99.90;;;;;;5073942;28;20195;-82
2023/10/28 12:14:00;;;;;;;2.73;2.53;;;13.40;99.90;;;;;;5073893;28;20163;-79
2023/10/28 12:16:26;;;;;;;2.10;1.90;;;13.40;99.90;;;;;;5073218;28;20173;-80
2023/10/28 12:18:52;;;;;;;1.40;1.30;;;13.40;99.90;;;;;;5075449;28;20183;-80
2023/10/28 12:21:18;;;;;;;1.07;1.07;;;13.40;99.90;;;;;;5076493;28;20651;-79
2023/10/28 12:23:45;;;;;;;0.90;0.90;;;13.50;99.90;;;;;;5076362;28;20175;-79
2023/10/28 12:26:11;;;;;;;1.70;1.00;;;13.50;99.90;;;;;;5077239;28;20222;-79
2023/10/28 12:28:37;;;;;;;9.63;8.30;;;13.50;99.90;;;;;;5091192;28;20534;-80
2023/10/28 12:31:03;;;;;;;7.27;6.57;;;13.50;99.90;;;;;;5080311;28;20203;-78
2023/10/28 12:33:29;;;;;;;5.10;4.63;;;13.50;99.90;;;;;;5078074;28;20167;-79
2023/10/28 12:35:56;;;;;;;3.00;1.50;;;13.50;99.90;;;;;;5076895;28;20289;-79
2023/10/28 12:38:21;;;;;;;2.47;1.80;;;13.50;99.90;;;;;;5076868;28;20202;-81
2023/10/28 12:40:47;;;;;;;0.97;0.97;;;13.50;99.90;;;;;;5076924;28;20975;-78
2023/10/28 12:43:13;;;;;;;0.53;0.53;;;13.50;99.90;;;;;;5082137;28;20183;-79
2023/10/28 12:45:39;;;;;;;0.80;0.80;;;13.50;99.90;;;;;;5083058;28;20215;-81
2023/10/28 12:48:05;;;;;;;0.90;0.90;;;13.60;99.90;;;;;;5079382;28;20258;-79
2023/10/28 12:50:31;;;;;;;0.83;0.83;;;13.60;99.90;;;;;;5075910;28;20206;-80